createdAt,value
2023-01-29T00:01:59.018Z,49.70
2023-01-29T00:04:47.061Z,49.70
2023-01-29T00:07:35.132Z,49.70
2023-01-29T00:10:24.581Z,49.80
2023-01-29T00:13:12.581Z,49.70
2023-01-29T00:16:01.462Z,49.80
2023-01-29T00:18:49.524Z,53.40
2023-01-29T00:21:37.693Z,49.80
2023-01-29T00:24:25.840Z,49.70
2023-01-29T00:27:15.265Z,49.80
2023-01-29T00:30:13.239Z,49.80
2023-01-29T00:33:01.379Z,49.80
2023-01-29T00:35:49.405Z,49.80
2023-01-29T00:38:38.496Z,53.00
2023-01-29T00:41:46.483Z,49.70
2023-01-29T00:44:52.938Z,49.70
2023-01-29T00:47:40.981Z,49.70
2023-01-29T00:50:29.029Z,49.60
2023-01-29T00:53:17.047Z,49.70
2023-01-29T00:56:05.345Z,49.70
2023-01-29T00:58:53.424Z,53.60
2023-01-29T01:02:00.456Z,49.80
2023-01-29T01:04:48.597Z,49.90
2023-01-29T01:07:36.589Z,49.90
2023-01-29T01:10:27.049Z,49.90
2023-01-29T01:13:15.098Z,49.90
2023-01-29T01:16:03.330Z,49.80
2023-01-29T01:18:52.650Z,53.00
2023-01-29T01:21:45.260Z,49.70
2023-01-29T01:24:33.391Z,49.80
2023-01-29T01:27:21.477Z,49.70
2023-01-29T01:30:12.368Z,49.60
2023-01-29T01:33:00.715Z,49.40
2023-01-29T01:35:50.072Z,49.70
2023-01-29T01:38:44.303Z,49.40
2023-01-29T01:41:32.388Z,49.60
2023-01-29T01:44:59.347Z,49.60
2023-01-29T01:47:49.858Z,49.60
2023-01-29T01:50:43.958Z,49.30
2023-01-29T01:53:38.652Z,49.80
2023-01-29T01:56:40.498Z,49.70
2023-01-29T01:59:28.532Z,49.60
2023-01-29T02:02:35.773Z,49.70
2023-01-29T02:05:41.852Z,49.80
2023-01-29T02:08:54.792Z,50.00
2023-01-29T02:11:42.822Z,49.80
2023-01-29T02:14:31.989Z,49.80
2023-01-29T02:17:21.279Z,49.90
2023-01-29T02:20:16.012Z,49.80
2023-01-29T02:23:37.605Z,49.80
2023-01-29T02:26:54.714Z,49.80
2023-01-29T02:29:53.372Z,49.80
2023-01-29T02:32:54.487Z,49.80
2023-01-29T02:35:44.772Z,49.80
2023-01-29T02:38:41.430Z,49.90
2023-01-29T02:41:35.686Z,49.80
2023-01-29T02:44:30.008Z,49.90
2023-01-29T02:47:23.958Z,49.90
2023-01-29T02:50:19.532Z,50.00
2023-01-29T02:53:13.993Z,50.00
2023-01-29T02:56:08.272Z,49.90
2023-01-29T02:59:02.235Z,55.30
2023-01-29T03:01:54.563Z,50.00
2023-01-29T03:04:47.878Z,50.00
2023-01-29T03:07:46.267Z,50.00
2023-01-29T03:10:38.746Z,49.90
2023-01-29T03:13:33.083Z,49.90
2023-01-29T03:16:26.857Z,49.80
2023-01-29T03:19:17.498Z,49.80
2023-01-29T03:22:08.537Z,49.80
2023-01-29T03:25:16.999Z,49.60
2023-01-29T03:28:25.478Z,49.80
2023-01-29T03:31:34.360Z,49.90
2023-01-29T03:34:28.457Z,49.90
2023-01-29T03:37:22.437Z,50.00
2023-01-29T03:40:12.207Z,50.00
2023-01-29T03:43:10.233Z,50.10
2023-01-29T03:46:04.786Z,50.00
2023-01-29T03:48:59.955Z,53.90
2023-01-29T03:51:56.525Z,50.10
2023-01-29T03:54:57.411Z,50.00
2023-01-29T03:57:50.408Z,50.10
2023-01-29T04:00:42.929Z,50.10
2023-01-29T04:03:35.255Z,50.00
2023-01-29T04:06:27.076Z,50.10
2023-01-29T04:09:22.045Z,49.40
2023-01-29T04:12:14.397Z,49.90
2023-01-29T04:15:04.550Z,49.90
2023-01-29T04:17:54.242Z,49.90
2023-01-29T04:20:42.704Z,49.90
2023-01-29T04:23:30.724Z,50.00
2023-01-29T04:26:39.112Z,50.00
2023-01-29T04:29:40.246Z,50.00
2023-01-29T04:32:33.015Z,50.20
2023-01-29T04:35:30.917Z,50.20
2023-01-29T04:38:28.659Z,50.10
2023-01-29T04:41:22.784Z,49.60
2023-01-29T04:44:19.571Z,50.10
2023-01-29T04:47:20.637Z,50.20
2023-01-29T04:50:17.935Z,50.30
2023-01-29T04:53:14.325Z,50.30
2023-01-29T04:56:09.890Z,50.30
2023-01-29T04:59:03.033Z,50.20
2023-01-29T05:01:51.152Z,50.20
2023-01-29T05:04:43.723Z,50.30
2023-01-29T05:07:34.844Z,50.30
2023-01-29T05:10:24.554Z,50.10
2023-01-29T05:13:15.738Z,50.10
2023-01-29T05:16:08.595Z,50.10
2023-01-29T05:18:56.766Z,55.20
2023-01-29T05:21:48.844Z,50.20
2023-01-29T05:24:37.869Z,50.20
2023-01-29T05:27:50.239Z,50.20
2023-01-29T05:30:40.194Z,50.20
2023-01-29T05:33:30.299Z,50.20
2023-01-29T05:36:18.329Z,50.20
2023-01-29T05:39:07.745Z,50.30
2023-01-29T05:41:55.778Z,50.30
2023-01-29T05:44:43.829Z,50.30
2023-01-29T05:47:31.958Z,50.40
2023-01-29T05:50:20.118Z,50.40
2023-01-29T05:53:08.155Z,50.40
2023-01-29T05:55:58.116Z,50.40
2023-01-29T05:58:46.166Z,50.40
2023-01-29T06:01:34.404Z,50.50
2023-01-29T06:04:22.449Z,50.40
2023-01-29T06:07:10.492Z,51.20
2023-01-29T06:09:58.605Z,50.50
2023-01-29T06:12:48.062Z,50.50
2023-01-29T06:15:36.094Z,50.50
2023-01-29T06:18:24.102Z,50.40
2023-01-29T06:21:14.437Z,50.60
2023-01-29T06:24:02.516Z,50.70
2023-01-29T06:26:50.717Z,50.80
2023-01-29T06:29:40.089Z,50.90
2023-01-29T06:32:28.915Z,50.80
2023-01-29T06:35:17.222Z,50.80
2023-01-29T06:38:05.236Z,50.80
2023-01-29T06:40:53.946Z,50.90
2023-01-29T06:43:44.644Z,50.80
2023-01-29T06:46:34.496Z,50.90
2023-01-29T06:49:23.218Z,50.90
2023-01-29T06:52:11.279Z,50.80
2023-01-29T06:54:59.325Z,50.70
2023-01-29T06:57:47.357Z,50.60
2023-01-29T07:00:35.716Z,50.70
2023-01-29T07:03:25.059Z,50.70
2023-01-29T07:06:13.163Z,50.80
2023-01-29T07:09:01.224Z,50.80
2023-01-29T07:11:49.329Z,50.80
2023-01-29T07:14:37.708Z,50.80
2023-01-29T07:17:25.749Z,50.90
2023-01-29T07:20:15.580Z,50.90
2023-01-29T07:23:03.925Z,50.90
2023-01-29T07:25:52.279Z,51.00
2023-01-29T07:28:41.285Z,50.70
2023-01-29T07:31:29.314Z,51.00
2023-01-29T07:34:17.338Z,51.10
2023-01-29T07:37:07.053Z,51.10
2023-01-29T07:39:55.076Z,51.10
2023-01-29T07:42:44.203Z,51.00
2023-01-29T07:45:34.301Z,51.10
2023-01-29T07:48:22.385Z,51.10
2023-01-29T07:51:10.418Z,51.10
2023-01-29T07:53:59.833Z,51.10
2023-01-29T07:56:47.861Z,51.10
2023-01-29T07:59:35.874Z,51.10
2023-01-29T08:02:23.954Z,51.20
2023-01-29T08:05:11.993Z,51.10
2023-01-29T08:08:06.461Z,51.10
2023-01-29T08:10:56.605Z,51.10
2023-01-29T08:13:45.652Z,51.10
2023-01-29T08:16:33.752Z,51.10
2023-01-29T08:19:21.865Z,51.20
2023-01-29T08:22:09.955Z,51.20
2023-01-29T08:25:06.501Z,51.10
2023-01-29T08:27:59.336Z,51.20
2023-01-29T08:30:47.529Z,51.20
2023-01-29T08:33:39.542Z,51.20
2023-01-29T08:36:27.696Z,51.40
2023-01-29T08:39:15.713Z,51.30
2023-01-29T08:42:03.734Z,51.40
2023-01-29T08:44:53.090Z,51.40
2023-01-29T08:47:46.595Z,51.40
2023-01-29T08:50:35.354Z,51.50
2023-01-29T08:53:24.916Z,51.50
2023-01-29T08:56:13.013Z,51.50
2023-01-29T08:59:01.019Z,51.50
2023-01-29T09:01:50.369Z,51.40
2023-01-29T09:04:38.375Z,51.50
2023-01-29T09:07:26.715Z,51.40
2023-01-29T09:10:14.835Z,51.40
2023-01-29T09:13:02.961Z,51.40
2023-01-29T09:15:51.066Z,51.40
2023-01-29T09:18:40.403Z,51.10
2023-01-29T09:21:28.483Z,51.40
2023-01-29T09:24:16.604Z,51.40
2023-01-29T09:27:05.137Z,51.40
2023-01-29T09:29:53.183Z,51.40
2023-01-29T09:32:53.153Z,51.40
2023-01-29T09:35:45.745Z,51.40
2023-01-29T09:38:33.804Z,51.40
2023-01-29T09:41:34.847Z,51.50
2023-01-29T09:44:31.563Z,51.60
2023-01-29T09:47:21.323Z,51.60
2023-01-29T09:50:14.563Z,51.60
2023-01-29T09:53:12.158Z,51.70
2023-01-29T09:56:05.584Z,51.70
2023-01-29T09:58:53.880Z,54.90
2023-01-29T10:01:51.848Z,51.70
2023-01-29T10:05:07.100Z,51.60
2023-01-29T10:08:14.233Z,51.60
2023-01-29T10:11:13.533Z,51.60
2023-01-29T10:14:10.754Z,51.60
2023-01-29T10:17:13.744Z,51.50
2023-01-29T10:20:21.075Z,51.50
2023-01-29T10:23:19.660Z,51.50
2023-01-29T10:26:11.796Z,51.40
2023-01-29T10:29:02.280Z,51.50
2023-01-29T10:31:56.267Z,51.40
2023-01-29T10:34:50.109Z,51.60
2023-01-29T10:37:42.276Z,51.70
2023-01-29T10:40:43.448Z,51.70
2023-01-29T10:43:38.699Z,51.80
2023-01-29T10:46:36.631Z,51.80
2023-01-29T10:49:38.936Z,51.80
2023-01-29T10:52:42.854Z,51.80
2023-01-29T10:55:44.161Z,51.80
2023-01-29T10:58:39.148Z,51.80
2023-01-29T11:01:27.610Z,51.80
2023-01-29T11:04:16.273Z,51.80
2023-01-29T11:07:05.075Z,51.70
2023-01-29T11:09:58.499Z,51.70
2023-01-29T11:12:48.079Z,51.60
2023-01-29T11:15:36.105Z,51.70
2023-01-29T11:18:24.200Z,51.50
2023-01-29T11:21:12.485Z,51.50
2023-01-29T11:24:08.989Z,51.70
2023-01-29T11:26:59.719Z,51.70
2023-01-29T11:29:49.333Z,51.70
2023-01-29T11:32:37.442Z,51.80
2023-01-29T11:35:26.593Z,51.80
2023-01-29T11:38:24.871Z,51.80
2023-01-29T11:41:18.547Z,51.80
2023-01-29T11:44:19.489Z,51.90
2023-01-29T11:47:19.038Z,51.90
2023-01-29T11:50:07.654Z,51.90
2023-01-29T11:52:56.487Z,51.90
2023-01-29T11:55:50.805Z,51.90
2023-01-29T11:58:39.152Z,52.70
2023-01-29T12:01:33.156Z,51.90
2023-01-29T12:04:25.578Z,51.70
2023-01-29T12:07:16.555Z,51.90
2023-01-29T12:10:05.306Z,51.80
2023-01-29T12:12:53.411Z,51.90
2023-01-29T12:15:43.217Z,51.80
2023-01-29T12:18:36.380Z,51.80
2023-01-29T12:21:33.140Z,51.30
2023-01-29T12:24:32.813Z,51.80
2023-01-29T12:27:26.271Z,51.80
2023-01-29T12:30:20.555Z,51.60
2023-01-29T12:33:17.418Z,51.80
2023-01-29T12:36:12.308Z,51.90
2023-01-29T12:39:01.777Z,52.00
2023-01-29T12:41:56.752Z,52.10
2023-01-29T12:44:48.288Z,52.10
2023-01-29T12:47:42.237Z,52.00
2023-01-29T12:50:34.179Z,52.10
2023-01-29T12:53:29.839Z,52.10
2023-01-29T12:56:27.749Z,52.10
2023-01-29T12:59:21.081Z,52.20
2023-01-29T13:02:19.684Z,52.20
2023-01-29T13:05:19.621Z,52.10
2023-01-29T13:08:11.045Z,52.20
2023-01-29T13:11:03.395Z,52.10
2023-01-29T13:13:58.039Z,51.90
2023-01-29T13:16:51.470Z,51.90
2023-01-29T13:19:43.551Z,51.90
2023-01-29T13:22:36.247Z,51.90
2023-01-29T13:25:24.373Z,51.90
2023-01-29T13:28:18.832Z,51.90
2023-01-29T13:31:22.629Z,52.00
2023-01-29T13:34:15.471Z,51.90
2023-01-29T13:37:05.215Z,52.00
2023-01-29T13:39:54.522Z,51.90
2023-01-29T13:42:47.099Z,51.90
2023-01-29T13:45:37.641Z,51.80
2023-01-29T13:48:28.788Z,52.00
2023-01-29T13:51:20.998Z,52.00
2023-01-29T13:54:18.292Z,52.00
2023-01-29T13:57:06.472Z,52.00
2023-01-29T13:59:56.386Z,51.90
2023-01-29T14:02:44.451Z,52.00
2023-01-29T14:05:44.626Z,52.00
2023-01-29T14:08:40.110Z,52.00
2023-01-29T14:11:37.592Z,52.10
2023-01-29T14:15:06.063Z,52.20
2023-01-29T14:18:13.947Z,52.20
2023-01-29T14:21:05.686Z,52.20
2023-01-29T14:23:54.744Z,52.20
2023-01-29T14:26:45.984Z,52.30
2023-01-29T14:29:39.366Z,52.30
2023-01-29T14:32:27.803Z,52.30
2023-01-29T14:35:20.681Z,52.40
2023-01-29T14:38:15.538Z,52.30
2023-01-29T14:41:09.359Z,52.20
2023-01-29T14:44:34.886Z,52.40
2023-01-29T14:47:44.079Z,52.30
2023-01-29T14:50:48.046Z,52.40
2023-01-29T14:53:54.236Z,52.30
2023-01-29T14:56:47.331Z,52.30
2023-01-29T14:59:38.369Z,52.30
2023-01-29T15:02:33.207Z,52.30
2023-01-29T15:05:25.619Z,52.30
2023-01-29T15:08:23.775Z,52.30
2023-01-29T15:11:36.948Z,52.30
2023-01-29T15:14:33.726Z,52.40
2023-01-29T15:17:29.835Z,52.40
2023-01-29T15:20:33.075Z,52.40
2023-01-29T15:23:27.288Z,52.40
2023-01-29T15:26:19.931Z,52.50
2023-01-29T15:29:08.048Z,52.50
2023-01-29T15:31:57.525Z,52.50
2023-01-29T15:34:45.719Z,52.50
2023-01-29T15:37:35.101Z,52.60
2023-01-29T15:40:25.440Z,52.50
2023-01-29T15:43:22.937Z,53.20
2023-01-29T15:46:19.088Z,52.50
2023-01-29T15:49:08.989Z,52.50
2023-01-29T15:51:58.695Z,52.50
2023-01-29T15:54:47.434Z,52.50
2023-01-29T15:57:41.052Z,52.50
2023-01-29T16:00:30.564Z,52.60
2023-01-29T16:03:23.292Z,52.70
2023-01-29T16:06:11.941Z,52.60
2023-01-29T16:09:00.297Z,52.60
2023-01-29T16:11:50.385Z,52.60
2023-01-29T16:14:41.633Z,57.10
2023-01-29T16:17:35.240Z,52.50
2023-01-29T16:20:34.320Z,52.50
2023-01-29T16:23:27.535Z,52.50
2023-01-29T16:26:18.798Z,52.50
2023-01-29T16:29:09.272Z,52.50
2023-01-29T16:32:02.336Z,52.50
2023-01-29T16:34:52.483Z,52.50
2023-01-29T16:37:40.590Z,52.40
2023-01-29T16:40:33.309Z,52.50
2023-01-29T16:43:52.534Z,52.50
2023-01-29T16:46:46.988Z,52.50
2023-01-29T16:49:51.078Z,52.40
2023-01-29T16:52:39.123Z,52.50
2023-01-29T16:55:32.264Z,52.50
2023-01-29T16:58:22.664Z,52.60
2023-01-29T17:01:12.097Z,52.60
2023-01-29T17:04:07.505Z,52.60
2023-01-29T17:07:00.478Z,52.60
2023-01-29T17:09:51.752Z,52.60
2023-01-29T17:12:40.029Z,53.30
2023-01-29T17:15:37.435Z,52.60
2023-01-29T17:18:26.407Z,52.60
2023-01-29T17:21:14.491Z,52.60
2023-01-29T17:24:03.913Z,52.60
2023-01-29T17:26:52.123Z,52.50
2023-01-29T17:29:40.219Z,52.50
2023-01-29T17:32:45.150Z,52.50
2023-01-29T17:35:35.326Z,52.50
2023-01-29T17:38:26.477Z,52.50
2023-01-29T17:41:23.175Z,52.50
2023-01-29T17:44:11.272Z,52.60
2023-01-29T17:46:59.777Z,52.40
2023-01-29T17:49:47.843Z,52.50
2023-01-29T17:52:35.900Z,52.40
2023-01-29T17:55:23.971Z,52.40
2023-01-29T17:58:18.878Z,52.40
2023-01-29T18:01:06.949Z,52.50
2023-01-29T18:03:55.126Z,52.50
2023-01-29T18:06:44.501Z,52.60
2023-01-29T18:09:32.543Z,52.60
2023-01-29T18:12:20.615Z,52.60
2023-01-29T18:15:11.361Z,52.60
2023-01-29T18:17:59.927Z,52.60
2023-01-29T18:20:48.889Z,52.60
2023-01-29T18:23:36.960Z,52.60
2023-01-29T18:26:25.154Z,52.60
2023-01-29T18:29:13.252Z,52.70
2023-01-29T18:32:02.716Z,52.60
2023-01-29T18:34:50.893Z,52.50
2023-01-29T18:37:38.963Z,52.40
2023-01-29T18:40:27.665Z,52.50
2023-01-29T18:43:16.350Z,52.40
2023-01-29T18:46:04.962Z,52.40
2023-01-29T18:48:54.358Z,56.20
2023-01-29T18:51:42.418Z,52.30
2023-01-29T18:54:30.480Z,52.30
2023-01-29T18:58:25.192Z,52.30
2023-01-29T19:00:26.694Z,52.30
2023-01-29T19:03:14.806Z,52.40
2023-01-29T19:06:05.226Z,52.50
2023-01-29T19:08:53.311Z,52.50
2023-01-29T19:11:41.397Z,52.60
2023-01-29T19:14:29.527Z,52.60
2023-01-29T19:17:17.835Z,52.60
2023-01-29T19:20:06.610Z,52.60
2023-01-29T19:22:56.029Z,52.60
2023-01-29T19:25:44.661Z,52.60
2023-01-29T19:28:33.089Z,52.60
2023-01-29T19:31:21.288Z,52.50
2023-01-29T19:34:10.157Z,52.40
2023-01-29T19:36:58.975Z,52.50
2023-01-29T19:39:48.386Z,52.30
2023-01-29T19:42:37.522Z,52.30
2023-01-29T19:45:37.473Z,52.20
2023-01-29T19:48:34.344Z,52.20
2023-01-29T19:51:23.309Z,52.20
2023-01-29T19:54:11.556Z,52.20
2023-01-29T19:57:01.070Z,52.20
2023-01-29T19:59:49.137Z,52.40
2023-01-29T20:02:37.177Z,52.30
2023-01-29T20:05:27.079Z,52.40
2023-01-29T20:08:15.199Z,52.40
2023-01-29T20:11:04.305Z,52.40
2023-01-29T20:13:54.418Z,52.40
2023-01-29T20:16:42.641Z,52.40
2023-01-29T20:19:30.730Z,52.30
2023-01-29T20:22:18.990Z,52.30
2023-01-29T20:25:07.974Z,52.30
2023-01-29T20:27:56.059Z,52.20
2023-01-29T20:30:46.999Z,52.20
2023-01-29T20:33:37.049Z,52.20
2023-01-29T20:36:26.912Z,52.20
2023-01-29T20:39:15.008Z,52.10
2023-01-29T20:42:03.154Z,52.20
2023-01-29T20:44:51.315Z,52.10
2023-01-29T20:47:40.781Z,52.10
2023-01-29T20:50:28.898Z,52.20
2023-01-29T20:53:16.987Z,52.20
2023-01-29T20:56:06.248Z,52.10
2023-01-29T20:58:56.554Z,56.50
2023-01-29T21:01:44.718Z,52.20
2023-01-29T21:04:34.263Z,52.30
2023-01-29T21:07:22.450Z,52.30
2023-01-29T21:10:11.861Z,52.20
2023-01-29T21:12:59.984Z,52.20
2023-01-29T21:15:48.186Z,52.20
2023-01-29T21:18:36.320Z,52.20
2023-01-29T21:21:26.746Z,52.20
2023-01-29T21:24:15.100Z,52.20
2023-01-29T21:27:03.194Z,52.10
2023-01-29T21:29:51.568Z,52.10
2023-01-29T21:32:39.754Z,52.10
2023-01-29T21:35:27.996Z,52.00
2023-01-29T21:38:17.527Z,52.00
2023-01-29T21:41:08.742Z,51.50
2023-01-29T21:43:55.871Z,52.10
2023-01-29T21:46:43.937Z,52.20
2023-01-29T21:49:32.035Z,56.70
2023-01-29T21:52:20.128Z,52.20
2023-01-29T21:55:10.249Z,52.20
2023-01-29T21:57:58.708Z,52.30
2023-01-29T22:00:49.666Z,52.20
2023-01-29T22:03:37.753Z,52.10
2023-01-29T22:06:26.000Z,52.10
2023-01-29T22:09:14.055Z,51.90
2023-01-29T22:12:03.620Z,52.10
2023-01-29T22:14:51.877Z,52.10
2023-01-29T22:17:41.275Z,52.10
2023-01-29T22:20:31.107Z,51.90
2023-01-29T22:23:19.172Z,52.00
2023-01-29T22:26:09.059Z,51.80
2023-01-29T22:28:58.566Z,51.80
2023-01-29T22:31:47.323Z,51.80
2023-01-29T22:34:35.662Z,51.90
2023-01-29T22:37:23.743Z,51.90
2023-01-29T22:40:13.102Z,51.90
2023-01-29T22:43:01.197Z,51.90
2023-01-29T22:45:50.640Z,51.70
2023-01-29T22:48:38.749Z,52.00
2023-01-29T22:51:26.867Z,52.00
2023-01-29T22:54:15.474Z,51.90
2023-01-29T22:57:03.592Z,52.00
2023-01-29T22:59:53.145Z,52.10
2023-01-29T23:02:42.526Z,52.00
2023-01-29T23:05:30.607Z,51.90
2023-01-29T23:08:18.766Z,51.90
2023-01-29T23:11:14.958Z,51.80
2023-01-29T23:14:03.179Z,51.90
2023-01-29T23:16:51.362Z,51.80
2023-01-29T23:19:40.811Z,51.80
2023-01-29T23:22:28.916Z,51.80
2023-01-29T23:25:17.395Z,51.80
2023-01-29T23:28:04.784Z,51.90
2023-01-29T23:30:53.000Z,51.80
2023-01-29T23:33:41.464Z,51.90
2023-01-29T23:36:30.910Z,51.90
2023-01-29T23:39:20.377Z,51.70
2023-01-29T23:42:08.562Z,51.70
2023-01-29T23:44:56.636Z,51.70
2023-01-29T23:47:44.674Z,51.70
2023-01-29T23:50:32.751Z,51.60
2023-01-29T23:53:22.363Z,51.20
2023-01-29T23:56:12.004Z,51.50
2023-01-29T23:59:00.116Z,51.40
